createdAt,value
2018-01-19T00:00:58.037Z,94.92
2018-01-19T00:02:02.253Z,95.14
2018-01-19T00:03:06.528Z,95.22
2018-01-19T00:04:10.782Z,95.30
2018-01-19T00:05:15.388Z,95.27
2018-01-19T00:06:19.561Z,95.25
2018-01-19T00:07:24.354Z,95.19
2018-01-19T00:08:28.437Z,95.04
2018-01-19T00:09:32.628Z,94.89
2018-01-19T00:10:36.931Z,94.76
2018-01-19T00:11:41.498Z,94.77
2018-01-19T00:12:45.770Z,94.67
2018-01-19T00:13:50.725Z,94.68
2018-01-19T00:14:54.886Z,94.73
2018-01-19T00:15:59.389Z,95.03
2018-01-19T00:17:03.861Z,95.14
2018-01-19T00:18:08.337Z,95.15
2018-01-19T00:19:12.552Z,95.19
2018-01-19T00:20:16.713Z,95.22
2018-01-19T00:21:20.978Z,95.31
2018-01-19T00:22:29.680Z,95.33
2018-01-19T00:23:33.840Z,95.34
2018-01-19T00:24:38.361Z,95.38
2018-01-19T00:25:42.611Z,95.37
2018-01-19T00:26:46.751Z,95.38
2018-01-19T00:27:52.060Z,95.42
2018-01-19T00:28:56.303Z,95.41
2018-01-19T00:30:00.477Z,95.44
2018-01-19T00:31:04.702Z,95.41
2018-01-19T00:32:11.233Z,95.38
2018-01-19T00:33:17.589Z,95.30
2018-01-19T00:34:22.699Z,95.32
2018-01-19T00:35:30.003Z,95.27
2018-01-19T00:36:34.154Z,95.22
2018-01-19T00:37:38.371Z,95.17
2018-01-19T00:38:42.664Z,95.12
2018-01-19T00:39:46.905Z,94.83
2018-01-19T00:40:51.712Z,94.68
2018-01-19T00:41:56.259Z,94.76
2018-01-19T00:43:00.396Z,94.89
2018-01-19T00:44:04.552Z,95.01
2018-01-19T00:45:09.088Z,95.08
2018-01-19T00:46:13.452Z,95.14
2018-01-19T00:47:17.607Z,95.01
2018-01-19T00:48:22.176Z,94.76
2018-01-19T00:49:26.487Z,94.60
2018-01-19T00:50:30.690Z,94.74
2018-01-19T00:51:34.929Z,94.76
2018-01-19T00:52:39.058Z,94.71
2018-01-19T00:53:43.285Z,94.58
2018-01-19T00:54:47.464Z,94.78
2018-01-19T00:55:51.644Z,94.66
2018-01-19T00:56:55.834Z,94.68
2018-01-19T00:58:00.031Z,94.84
2018-01-19T00:59:04.426Z,94.75
2018-01-19T01:00:08.988Z,94.87
2018-01-19T01:01:13.713Z,95.00
2018-01-19T01:02:17.812Z,94.99
2018-01-19T01:03:22.516Z,94.98
2018-01-19T01:04:27.541Z,94.91
2018-01-19T01:05:31.879Z,94.93
2018-01-19T01:06:36.362Z,95.08
2018-01-19T01:07:40.574Z,95.05
2018-01-19T01:08:44.704Z,95.12
2018-01-19T01:09:48.881Z,94.96
2018-01-19T01:10:53.214Z,94.88
2018-01-19T01:11:57.750Z,94.79
2018-01-19T01:13:01.921Z,94.92
2018-01-19T01:14:06.085Z,94.96
2018-01-19T01:15:13.332Z,94.85
2018-01-19T01:16:17.539Z,94.74
2018-01-19T01:17:23.320Z,94.77
2018-01-19T01:18:27.839Z,94.32
2018-01-19T01:19:31.947Z,94.48
2018-01-19T01:20:36.201Z,94.12
2018-01-19T01:21:40.422Z,93.93
2018-01-19T01:22:44.648Z,94.16
2018-01-19T01:23:48.811Z,94.39
2018-01-19T01:24:53.290Z,94.64
2018-01-19T01:25:57.586Z,94.54
2018-01-19T01:27:01.821Z,94.43
2018-01-19T01:28:05.938Z,94.42
2018-01-19T01:29:10.133Z,94.37
2018-01-19T01:30:17.097Z,94.27
2018-01-19T01:31:21.911Z,94.23
2018-01-19T01:32:26.927Z,94.09
2018-01-19T01:33:31.098Z,94.05
2018-01-19T01:34:35.205Z,93.79
2018-01-19T01:35:39.489Z,94.02
2018-01-19T01:36:43.675Z,93.77
2018-01-19T01:37:48.736Z,93.55
2018-01-19T01:38:52.933Z,93.21
2018-01-19T01:39:57.105Z,93.34
2018-01-19T01:41:01.317Z,93.30
2018-01-19T01:42:05.233Z,93.20
2018-01-19T01:43:09.386Z,93.15
2018-01-19T01:44:13.881Z,93.17
2018-01-19T01:45:18.005Z,93.01
2018-01-19T01:46:22.721Z,92.68
2018-01-19T01:47:27.729Z,93.42
2018-01-19T01:48:31.849Z,93.14
2018-01-19T01:49:35.968Z,93.30
2018-01-19T01:50:40.550Z,93.15
2018-01-19T01:51:44.764Z,92.90
2018-01-19T01:52:49.508Z,92.92
2018-01-19T01:53:53.664Z,92.90
2018-01-19T01:54:57.864Z,92.98
2018-01-19T01:56:02.153Z,93.07
2018-01-19T01:57:06.574Z,93.26
2018-01-19T01:58:10.707Z,93.25
2018-01-19T01:59:14.900Z,93.63
2018-01-19T02:00:19.337Z,94.05
2018-01-19T02:01:24.580Z,94.10
2018-01-19T02:02:28.800Z,94.17
2018-01-19T02:03:32.884Z,94.04
2018-01-19T02:04:36.991Z,93.77
2018-01-19T02:05:41.252Z,93.52
2018-01-19T02:06:45.442Z,93.52
2018-01-19T02:07:50.617Z,93.43
2018-01-19T02:08:54.808Z,93.73
2018-01-19T02:09:59.060Z,93.43
2018-01-19T02:11:03.349Z,93.47
2018-01-19T02:12:07.481Z,93.25
2018-01-19T02:13:11.659Z,93.11
2018-01-19T02:14:15.878Z,93.04
2018-01-19T02:15:20.616Z,92.99
2018-01-19T02:16:25.033Z,93.03
2018-01-19T02:17:29.231Z,93.31
2018-01-19T02:18:33.302Z,93.50
2018-01-19T02:19:37.427Z,93.78
2018-01-19T02:20:42.196Z,93.83
2018-01-19T02:21:46.320Z,93.96
2018-01-19T02:22:51.410Z,94.17
2018-01-19T02:23:55.500Z,94.23
2018-01-19T02:24:59.705Z,94.34
2018-01-19T02:26:03.890Z,94.41
2018-01-19T02:27:08.389Z,94.42
2018-01-19T02:28:12.539Z,94.39
2018-01-19T02:29:16.679Z,94.37
2018-01-19T02:30:22.092Z,94.32
2018-01-19T02:31:26.426Z,94.20
2018-01-19T02:32:30.557Z,94.05
2018-01-19T02:33:35.080Z,93.89
2018-01-19T02:34:39.205Z,93.73
2018-01-19T02:35:43.405Z,93.67
2018-01-19T02:36:47.491Z,93.49
2018-01-19T02:37:52.344Z,93.38
2018-01-19T02:38:56.542Z,93.35
2018-01-19T02:40:00.693Z,93.45
2018-01-19T02:41:05.381Z,93.53
2018-01-19T02:42:14.414Z,93.72
2018-01-19T02:43:19.336Z,93.81
2018-01-19T02:44:23.698Z,93.96
2018-01-19T02:45:28.765Z,93.95
2018-01-19T02:46:33.021Z,94.11
2018-01-19T02:47:37.194Z,94.40
2018-01-19T02:48:41.299Z,94.43
2018-01-19T02:49:45.420Z,94.41
2018-01-19T02:50:49.697Z,94.37
2018-01-19T02:51:54.006Z,94.57
2018-01-19T02:52:58.188Z,94.46
2018-01-19T02:54:02.628Z,94.43
2018-01-19T02:55:06.271Z,94.18
2018-01-19T02:56:10.358Z,93.98
2018-01-19T02:57:14.705Z,93.64
2018-01-19T02:58:19.113Z,93.60
2018-01-19T02:59:23.914Z,93.58
2018-01-19T03:00:28.346Z,93.46
2018-01-19T03:01:32.460Z,93.32
2018-01-19T03:02:36.686Z,93.12
2018-01-19T03:03:40.780Z,92.77
2018-01-19T03:04:44.944Z,92.53
2018-01-19T03:05:50.135Z,92.50
2018-01-19T03:06:54.265Z,93.16
2018-01-19T03:07:58.509Z,93.17
2018-01-19T03:09:02.887Z,93.43
2018-01-19T03:10:07.298Z,93.58
2018-01-19T03:11:11.517Z,93.84
2018-01-19T03:12:15.670Z,93.91
2018-01-19T03:13:19.963Z,94.08
2018-01-19T03:14:24.828Z,94.24
2018-01-19T03:15:29.324Z,94.22
2018-01-19T03:16:33.507Z,94.11
2018-01-19T03:17:37.594Z,94.08
2018-01-19T03:18:41.824Z,94.18
2018-01-19T03:19:45.953Z,94.65
2018-01-19T03:20:50.047Z,94.91
2018-01-19T03:21:54.162Z,95.02
2018-01-19T03:22:58.618Z,94.86
2018-01-19T03:24:03.067Z,94.84
2018-01-19T03:25:07.209Z,94.60
2018-01-19T03:26:11.456Z,94.57
2018-01-19T03:27:15.671Z,94.55
2018-01-19T03:28:20.104Z,94.83
2018-01-19T03:29:25.360Z,94.70
2018-01-19T03:30:29.771Z,94.53
2018-01-19T03:31:33.949Z,94.71
2018-01-19T03:32:38.144Z,94.80
2018-01-19T03:33:42.411Z,94.87
2018-01-19T03:34:46.885Z,95.10
2018-01-19T03:35:51.000Z,95.05
2018-01-19T03:36:55.129Z,95.07
2018-01-19T03:37:59.343Z,95.05
2018-01-19T03:39:03.745Z,95.03
2018-01-19T03:40:07.845Z,95.15
2018-01-19T03:41:12.292Z,94.96
2018-01-19T03:42:16.467Z,94.99
2018-01-19T03:43:20.646Z,94.82
2018-01-19T03:44:24.937Z,94.81
2018-01-19T03:45:29.209Z,94.81
2018-01-19T03:46:33.410Z,94.83
2018-01-19T03:47:37.834Z,94.65
2018-01-19T03:48:42.145Z,94.46
2018-01-19T03:49:46.352Z,94.29
2018-01-19T03:50:51.117Z,94.18
2018-01-19T03:51:55.368Z,94.38
2018-01-19T03:52:59.659Z,94.22
2018-01-19T03:54:04.550Z,94.15
2018-01-19T03:55:08.730Z,94.09
2018-01-19T03:56:13.001Z,93.98
2018-01-19T03:57:17.103Z,93.77
2018-01-19T03:58:21.340Z,93.53
2018-01-19T03:59:25.431Z,93.30
2018-01-19T04:00:29.947Z,93.05
2018-01-19T04:01:34.125Z,92.88
2018-01-19T04:02:38.237Z,92.78
2018-01-19T04:03:42.444Z,92.77
2018-01-19T04:04:46.697Z,92.65
2018-01-19T04:05:51.268Z,92.49
2018-01-19T04:06:55.448Z,92.37
2018-01-19T04:07:59.716Z,92.57
2018-01-19T04:09:04.026Z,92.89
2018-01-19T04:10:08.161Z,93.09
2018-01-19T04:11:12.454Z,93.01
2018-01-19T04:12:16.693Z,92.83
2018-01-19T04:13:20.828Z,92.88
2018-01-19T04:14:25.030Z,93.29
2018-01-19T04:15:29.594Z,93.43
2018-01-19T04:16:33.780Z,93.57
2018-01-19T04:17:38.215Z,93.71
2018-01-19T04:18:42.413Z,93.66
2018-01-19T04:19:46.511Z,93.48
2018-01-19T04:20:50.617Z,93.52
2018-01-19T04:21:54.780Z,93.67
2018-01-19T04:22:59.004Z,93.66
2018-01-19T04:24:03.875Z,93.51
2018-01-19T04:25:08.303Z,93.37
2018-01-19T04:26:12.475Z,93.19
2018-01-19T04:27:16.877Z,93.00
2018-01-19T04:28:21.083Z,92.86
2018-01-19T04:29:26.150Z,92.91
2018-01-19T04:30:31.221Z,92.94
2018-01-19T04:31:35.370Z,92.95
2018-01-19T04:32:39.597Z,93.14
2018-01-19T04:33:43.780Z,93.41
2018-01-19T04:34:48.388Z,93.51
2018-01-19T04:35:52.914Z,93.82
2018-01-19T04:36:57.189Z,94.03
2018-01-19T04:38:01.445Z,94.06
2018-01-19T04:39:06.557Z,94.21
2018-01-19T04:40:10.792Z,94.46
2018-01-19T04:41:14.981Z,94.56
2018-01-19T04:42:19.116Z,94.40
2018-01-19T04:43:24.557Z,94.61
2018-01-19T04:44:28.701Z,94.47
2018-01-19T04:45:33.223Z,94.62
2018-01-19T04:46:37.441Z,94.36
2018-01-19T04:47:42.720Z,94.27
2018-01-19T04:48:46.981Z,94.33
2018-01-19T04:49:51.229Z,94.28
2018-01-19T04:50:55.401Z,93.99
2018-01-19T04:51:59.645Z,93.90
2018-01-19T04:53:03.821Z,93.79
2018-01-19T04:54:08.088Z,93.98
2018-01-19T04:55:12.705Z,93.73
2018-01-19T04:56:17.365Z,93.58
2018-01-19T04:57:22.230Z,93.71
2018-01-19T04:58:27.313Z,93.81
2018-01-19T04:59:31.500Z,93.96
2018-01-19T05:00:35.790Z,94.08
2018-01-19T05:01:40.245Z,94.16
2018-01-19T05:02:45.131Z,94.34
2018-01-19T05:03:49.238Z,94.38
2018-01-19T05:04:53.513Z,94.51
2018-01-19T05:05:57.698Z,94.61
2018-01-19T05:07:02.421Z,94.72
2018-01-19T05:08:06.589Z,94.66
2018-01-19T05:09:11.028Z,94.64
2018-01-19T05:10:16.384Z,94.52
2018-01-19T05:11:21.685Z,94.45
2018-01-19T05:12:26.693Z,94.29
2018-01-19T05:13:30.793Z,94.30
2018-01-19T05:14:35.076Z,94.11
2018-01-19T05:15:40.256Z,94.00
2018-01-19T05:16:44.461Z,93.94
2018-01-19T05:17:48.612Z,93.81
2018-01-19T05:18:53.152Z,93.72
2018-01-19T05:19:57.356Z,93.72
2018-01-19T05:21:01.564Z,93.71
2018-01-19T05:22:05.678Z,93.54
2018-01-19T05:23:09.948Z,93.42
2018-01-19T05:24:15.320Z,93.58
2018-01-19T05:25:19.518Z,93.93
2018-01-19T05:26:24.521Z,94.14
2018-01-19T05:27:28.701Z,94.28
2018-01-19T05:28:33.408Z,94.33
2018-01-19T05:29:37.637Z,94.31
2018-01-19T05:30:42.515Z,94.07
2018-01-19T05:31:46.630Z,94.03
2018-01-19T05:32:50.837Z,94.25
2018-01-19T05:33:55.033Z,94.31
2018-01-19T05:34:59.272Z,94.38
2018-01-19T05:36:03.454Z,94.34
2018-01-19T05:37:07.940Z,94.29
2018-01-19T05:38:12.156Z,94.21
2018-01-19T05:39:16.346Z,94.21
2018-01-19T05:40:20.641Z,94.23
2018-01-19T05:41:25.603Z,94.01
2018-01-19T05:42:29.707Z,93.77
2018-01-19T05:43:34.285Z,93.62
2018-01-19T05:44:38.391Z,93.84
2018-01-19T05:45:42.651Z,93.70
2018-01-19T05:46:46.909Z,93.80
2018-01-19T05:47:51.120Z,93.38
2018-01-19T05:48:55.293Z,92.85
2018-01-19T05:49:59.620Z,92.53
2018-01-19T05:51:03.933Z,92.40
2018-01-19T05:52:08.098Z,92.23
2018-01-19T05:53:12.342Z,91.76
2018-01-19T05:54:17.247Z,91.58
2018-01-19T05:55:24.363Z,92.15
2018-01-19T05:56:28.548Z,92.59
2018-01-19T05:57:32.761Z,91.81
2018-01-19T05:58:36.867Z,91.77
2018-01-19T05:59:41.052Z,91.45
2018-01-19T06:00:45.262Z,91.24
2018-01-19T06:01:49.437Z,91.32
2018-01-19T06:02:53.737Z,91.35
2018-01-19T06:03:57.865Z,91.63
2018-01-19T06:05:02.062Z,92.05
2018-01-19T06:06:06.198Z,92.48
2018-01-19T06:07:10.800Z,92.67
2018-01-19T06:08:15.052Z,92.76
2018-01-19T06:09:19.181Z,92.90
2018-01-19T06:10:23.468Z,92.91
2018-01-19T06:11:27.603Z,92.81
2018-01-19T06:12:31.830Z,93.12
2018-01-19T06:13:36.308Z,93.19
2018-01-19T06:14:41.474Z,93.15
2018-01-19T06:15:45.794Z,93.31
2018-01-19T06:16:49.940Z,93.44
2018-01-19T06:17:54.070Z,93.19
2018-01-19T06:18:58.297Z,93.25
2018-01-19T06:20:02.723Z,93.19
2018-01-19T06:21:06.877Z,93.32
2018-01-19T06:22:12.580Z,93.22
2018-01-19T06:23:16.712Z,93.01
2018-01-19T06:24:21.970Z,93.24
2018-01-19T06:25:26.310Z,93.12
2018-01-19T06:26:30.450Z,92.83
2018-01-19T06:27:34.622Z,92.84
2018-01-19T06:28:39.149Z,92.85
2018-01-19T06:29:43.290Z,93.08
2018-01-19T06:30:47.566Z,93.23
2018-01-19T06:31:51.740Z,93.10
2018-01-19T06:32:56.191Z,93.20
2018-01-19T06:34:00.312Z,93.56
2018-01-19T06:35:04.561Z,93.51
2018-01-19T06:36:08.743Z,93.63
2018-01-19T06:37:12.936Z,93.63
2018-01-19T06:38:17.093Z,93.67
2018-01-19T06:39:21.370Z,93.53
2018-01-19T06:40:25.594Z,93.06
2018-01-19T06:41:29.845Z,93.05
2018-01-19T06:42:34.392Z,93.25
2018-01-19T06:43:38.508Z,93.37
2018-01-19T06:44:42.950Z,93.66
2018-01-19T06:45:47.180Z,94.05
2018-01-19T06:46:51.279Z,94.26
2018-01-19T06:47:55.412Z,94.23
2018-01-19T06:48:59.697Z,94.37
2018-01-19T06:50:04.176Z,94.55
2018-01-19T06:51:08.925Z,94.78
2018-01-19T06:52:13.642Z,94.95
2018-01-19T06:53:17.949Z,95.08
2018-01-19T06:54:22.141Z,95.10
2018-01-19T06:55:26.396Z,95.21
2018-01-19T06:56:30.726Z,95.30
2018-01-19T06:57:35.222Z,95.39
2018-01-19T06:58:39.445Z,95.41
2018-01-19T06:59:43.667Z,95.45
2018-01-19T07:00:47.987Z,95.43
2018-01-19T07:01:52.216Z,95.57
2018-01-19T07:02:56.583Z,95.48
2018-01-19T07:04:01.161Z,95.64
2018-01-19T07:05:05.294Z,95.47
2018-01-19T07:06:09.550Z,95.44
2018-01-19T07:07:13.775Z,95.55
2018-01-19T07:08:18.704Z,95.66
2018-01-19T07:09:23.061Z,95.69
2018-01-19T07:10:27.174Z,95.77
2018-01-19T07:11:32.256Z,95.91
2018-01-19T07:12:36.374Z,95.86
2018-01-19T07:13:40.580Z,95.80
2018-01-19T07:14:45.174Z,95.80
2018-01-19T07:15:49.874Z,95.67
2018-01-19T07:16:54.456Z,95.54
2018-01-19T07:17:58.666Z,95.57
2018-01-19T07:19:02.970Z,95.75
2018-01-19T07:20:07.254Z,95.67
2018-01-19T07:21:11.377Z,95.60
2018-01-19T07:22:16.701Z,95.56
2018-01-19T07:23:21.797Z,95.55
2018-01-19T07:24:26.821Z,95.57
2018-01-19T07:25:31.142Z,95.63
2018-01-19T07:26:35.404Z,95.57
2018-01-19T07:27:39.597Z,95.55
2018-01-19T07:28:44.085Z,95.60
2018-01-19T07:29:48.307Z,95.60
2018-01-19T07:30:52.649Z,95.67
2018-01-19T07:31:57.272Z,95.73
2018-01-19T07:33:01.610Z,95.88
2018-01-19T07:34:05.837Z,95.87
2018-01-19T07:35:10.386Z,95.90
2018-01-19T07:36:14.839Z,95.98
2018-01-19T07:37:19.492Z,96.01
2018-01-19T07:38:24.294Z,96.19
2018-01-19T07:39:28.602Z,96.12
2018-01-19T07:40:32.856Z,95.94
2018-01-19T07:41:38.129Z,95.91
2018-01-19T07:42:42.411Z,95.98
2018-01-19T07:43:46.716Z,96.09
2018-01-19T07:44:50.984Z,95.88
2018-01-19T07:45:55.432Z,95.90
2018-01-19T07:46:59.602Z,95.95
2018-01-19T07:48:04.092Z,95.79
2018-01-19T07:49:08.356Z,95.74
2018-01-19T07:50:12.537Z,95.87
2018-01-19T07:51:17.307Z,95.80
2018-01-19T07:52:22.392Z,95.83
2018-01-19T07:53:27.468Z,95.88
2018-01-19T07:54:31.952Z,96.08
2018-01-19T07:55:36.058Z,95.79
2018-01-19T07:56:40.226Z,95.75
2018-01-19T07:57:44.509Z,95.77
2018-01-19T07:58:48.739Z,95.87
2018-01-19T07:59:52.969Z,95.93
2018-01-19T08:00:58.708Z,95.92
2018-01-19T08:02:03.044Z,95.82
2018-01-19T08:03:07.184Z,95.87
2018-01-19T08:04:11.357Z,95.89
2018-01-19T08:05:15.535Z,95.85
2018-01-19T08:06:20.410Z,95.81
2018-01-19T08:07:25.434Z,95.79
2018-01-19T08:08:29.633Z,95.75
2018-01-19T08:10:37.864Z,95.95
2018-01-19T08:11:42.312Z,95.78
2018-01-19T08:12:46.514Z,95.79
2018-01-19T08:13:51.460Z,95.89
2018-01-19T08:14:55.710Z,95.96
2018-01-19T08:16:00.062Z,95.93
2018-01-19T08:17:04.658Z,95.95
2018-01-19T08:18:08.877Z,96.03
2018-01-19T08:19:13.141Z,96.07
2018-01-19T08:20:17.354Z,96.13
2018-01-19T08:21:22.317Z,96.21
2018-01-19T08:22:26.592Z,96.25
2018-01-19T08:23:30.746Z,96.30
2018-01-19T08:24:35.080Z,96.31
2018-01-19T08:25:39.213Z,96.35
2018-01-19T08:26:43.841Z,96.34
2018-01-19T08:27:48.119Z,96.39
2018-01-19T08:28:52.410Z,96.47
2018-01-19T08:29:56.544Z,96.41
2018-01-19T08:31:01.126Z,96.52
2018-01-19T08:32:06.434Z,96.50
2018-01-19T08:33:10.897Z,96.56
2018-01-19T08:34:15.684Z,96.67
2018-01-19T08:35:20.542Z,96.70
2018-01-19T08:36:24.720Z,96.73
2018-01-19T08:37:29.022Z,96.77
2018-01-19T08:38:33.125Z,96.56
2018-01-19T08:39:37.653Z,96.60
2018-01-19T08:40:41.799Z,96.64
2018-01-19T08:41:45.993Z,96.70
2018-01-19T08:42:50.181Z,96.67
2018-01-19T08:43:54.452Z,96.62
2018-01-19T08:44:58.582Z,96.55
2018-01-19T08:46:03.542Z,96.42
2018-01-19T08:47:07.645Z,96.47
2018-01-19T08:48:11.829Z,96.48
2018-01-19T08:49:15.960Z,96.57
2018-01-19T08:50:21.111Z,96.66
2018-01-19T08:51:26.305Z,96.63
2018-01-19T08:52:30.500Z,96.46
2018-01-19T08:53:34.754Z,96.55
2018-01-19T08:54:39.051Z,96.40
2018-01-19T08:55:43.222Z,96.33
2018-01-19T08:56:47.390Z,96.31
2018-01-19T08:57:51.978Z,96.17
2018-01-19T08:58:56.117Z,96.09
2018-01-19T09:00:00.300Z,95.92
2018-01-19T09:01:05.808Z,95.72
2018-01-19T09:02:10.074Z,95.83
2018-01-19T09:03:14.607Z,95.83
2018-01-19T09:04:19.267Z,95.88
2018-01-19T09:05:23.554Z,95.98
2018-01-19T09:06:28.613Z,96.07
2018-01-19T09:07:32.758Z,96.11
2018-01-19T09:08:36.929Z,95.96
2018-01-19T09:09:41.168Z,96.01
2018-01-19T09:10:45.410Z,96.08
2018-01-19T09:11:49.597Z,96.05
2018-01-19T09:12:53.825Z,96.01
2018-01-19T09:13:58.332Z,96.12
2018-01-19T09:15:04.004Z,96.10
2018-01-19T09:16:08.513Z,96.32
2018-01-19T09:17:13.426Z,96.30
2018-01-19T09:18:17.600Z,96.25
2018-01-19T09:19:22.636Z,96.42
2018-01-19T09:20:26.756Z,96.32
2018-01-19T09:21:30.884Z,96.49
2018-01-19T09:22:35.082Z,96.62
2018-01-19T09:23:39.273Z,96.62
2018-01-19T09:24:43.492Z,96.56
2018-01-19T09:25:47.700Z,96.73
2018-01-19T09:26:51.994Z,96.77
2018-01-19T09:27:56.197Z,96.84
2018-01-19T09:29:00.698Z,96.66
2018-01-19T09:30:07.032Z,96.56
2018-01-19T09:31:11.452Z,96.51
2018-01-19T09:32:15.699Z,96.37
2018-01-19T09:33:19.824Z,96.23
2018-01-19T09:34:24.128Z,96.46
2018-01-19T09:35:28.440Z,96.69
2018-01-19T09:36:32.739Z,96.47
2018-01-19T09:37:36.988Z,96.42
2018-01-19T09:38:41.334Z,96.48
2018-01-19T09:39:45.517Z,96.46
2018-01-19T09:40:49.794Z,96.27
2018-01-19T09:41:54.415Z,96.44
2018-01-19T09:42:58.590Z,96.68
2018-01-19T09:44:02.779Z,96.76
2018-01-19T09:45:07.044Z,96.71
2018-01-19T09:46:11.177Z,96.57
2018-01-19T09:47:15.315Z,96.50
2018-01-19T09:48:21.214Z,96.54
2018-01-19T09:49:26.415Z,96.35
2018-01-19T09:50:30.794Z,96.67
2018-01-19T09:51:35.065Z,96.73
2018-01-19T09:52:39.404Z,96.54
2018-01-19T09:53:43.586Z,96.55
2018-01-19T09:54:48.065Z,96.51
2018-01-19T09:55:52.329Z,96.46
2018-01-19T09:56:56.525Z,96.37
2018-01-19T09:58:00.774Z,96.26
2018-01-19T09:59:05.025Z,95.98
2018-01-19T10:00:09.440Z,95.94
2018-01-19T10:01:13.898Z,95.98
2018-01-19T10:02:18.289Z,96.04
2018-01-19T10:03:23.322Z,96.04
2018-01-19T10:04:27.453Z,95.97
2018-01-19T10:05:31.751Z,96.08
2018-01-19T10:06:35.927Z,96.09
2018-01-19T10:07:40.456Z,96.13
2018-01-19T10:08:44.714Z,96.06
2018-01-19T10:09:49.680Z,96.41
2018-01-19T10:10:54.102Z,96.41
2018-01-19T10:11:58.303Z,96.37
2018-01-19T10:13:02.576Z,96.20
2018-01-19T10:14:07.110Z,96.16
2018-01-19T10:15:13.690Z,96.08
2018-01-19T10:16:18.264Z,96.03
2018-01-19T10:17:22.464Z,96.02
2018-01-19T10:18:27.356Z,95.91
2018-01-19T10:19:31.574Z,96.06
2018-01-19T10:20:36.154Z,96.09
2018-01-19T10:21:40.361Z,96.19
2018-01-19T10:22:44.566Z,96.14
2018-01-19T10:23:48.774Z,96.12
2018-01-19T10:24:52.958Z,96.22
2018-01-19T10:25:57.258Z,96.13
2018-01-19T10:27:01.775Z,96.24
2018-01-19T10:28:05.964Z,96.11
2018-01-19T10:29:10.205Z,96.08
2018-01-19T10:30:16.176Z,96.42
2018-01-19T10:31:20.561Z,96.50
2018-01-19T10:32:25.722Z,96.58
2018-01-19T10:33:30.048Z,96.80
2018-01-19T10:34:34.178Z,97.09
2018-01-19T10:35:38.376Z,96.41
2018-01-19T10:36:42.660Z,96.41
2018-01-19T10:37:46.878Z,96.72
2018-01-19T10:38:51.358Z,97.01
2018-01-19T10:39:55.911Z,96.42
2018-01-19T10:41:00.139Z,96.21
2018-01-19T10:42:04.352Z,95.58
2018-01-19T10:43:08.617Z,95.91
2018-01-19T10:44:12.870Z,95.40
2018-01-19T10:45:18.464Z,95.59
2018-01-19T10:46:23.468Z,95.84
2018-01-19T10:47:29.569Z,95.68
2018-01-19T10:48:33.860Z,95.51
2018-01-19T10:49:38.032Z,95.43
2018-01-19T10:50:42.294Z,94.96
2018-01-19T10:51:46.475Z,94.44
2018-01-19T10:52:50.895Z,95.14
2018-01-19T10:53:55.206Z,95.13
2018-01-19T10:54:59.652Z,95.17
2018-01-19T10:56:03.961Z,95.46
2018-01-19T10:57:08.190Z,95.41
2018-01-19T10:58:12.697Z,95.34
2018-01-19T10:59:17.293Z,95.38
2018-01-19T11:00:22.661Z,95.49
2018-01-19T11:01:27.530Z,95.39
2018-01-19T11:02:31.836Z,95.04
2018-01-19T11:03:36.046Z,95.06
2018-01-19T11:04:40.641Z,95.13
2018-01-19T11:05:44.835Z,95.49
2018-01-19T11:06:49.107Z,95.97
2018-01-19T11:07:53.270Z,95.23
2018-01-19T11:08:57.599Z,95.61
2018-01-19T11:10:01.749Z,95.51
2018-01-19T11:11:06.370Z,94.48
2018-01-19T11:12:10.585Z,94.77
2018-01-19T11:13:14.788Z,94.66
2018-01-19T11:14:19.791Z,94.23
2018-01-19T11:15:24.867Z,93.13
2018-01-19T11:16:29.197Z,93.39
2018-01-19T11:17:33.451Z,93.48
2018-01-19T11:18:37.741Z,93.56
2018-01-19T11:19:42.088Z,94.05
2018-01-19T11:20:46.271Z,93.14
2018-01-19T11:21:50.437Z,93.07
2018-01-19T11:22:54.940Z,92.71
2018-01-19T11:23:59.135Z,93.18
2018-01-19T11:25:03.306Z,91.84
2018-01-19T11:26:07.604Z,91.44
2018-01-19T11:27:11.836Z,91.51
2018-01-19T11:28:16.145Z,91.65
2018-01-19T11:29:21.266Z,91.05
2018-01-19T11:30:26.317Z,90.76
2018-01-19T11:31:30.590Z,90.97
2018-01-19T11:32:34.768Z,91.62
2018-01-19T11:33:39.034Z,91.62
2018-01-19T11:34:43.194Z,91.21
2018-01-19T11:35:47.768Z,91.06
2018-01-19T11:36:51.991Z,91.63
2018-01-19T11:37:56.181Z,91.94
2018-01-19T11:39:00.373Z,91.51
2018-01-19T11:40:04.670Z,91.32
2018-01-19T11:41:09.041Z,91.34
2018-01-19T11:42:13.685Z,91.48
2018-01-19T11:43:17.861Z,91.75
2018-01-19T11:44:23.065Z,90.85
2018-01-19T11:45:27.234Z,90.87
2018-01-19T11:46:31.391Z,90.85
2018-01-19T11:47:35.630Z,90.20
2018-01-19T11:48:40.203Z,89.51
2018-01-19T11:49:44.463Z,87.55
2018-01-19T11:50:48.708Z,87.58
2018-01-19T11:51:53.047Z,86.56
2018-01-19T11:52:57.314Z,84.91
2018-01-19T11:54:01.628Z,83.35
2018-01-19T11:55:06.204Z,82.84
2018-01-19T11:56:10.566Z,83.21
2018-01-19T11:57:14.672Z,81.05
2018-01-19T11:58:19.038Z,83.86
2018-01-19T11:59:24.386Z,83.48
2018-01-19T12:00:29.974Z,84.08
2018-01-19T12:01:34.283Z,84.64
2018-01-19T12:02:38.529Z,85.28
2018-01-19T12:03:42.878Z,83.94
2018-01-19T12:04:47.151Z,83.03
2018-01-19T12:05:51.290Z,83.18
2018-01-19T12:06:56.115Z,83.14
2018-01-19T12:08:01.494Z,81.82
2018-01-19T12:09:05.963Z,81.71
2018-01-19T12:10:10.258Z,81.29
2018-01-19T12:11:14.647Z,82.12
2018-01-19T12:12:18.830Z,81.42
2018-01-19T12:13:24.130Z,79.58
2018-01-19T12:14:28.935Z,79.48
2018-01-19T12:15:33.294Z,80.53
2018-01-19T12:16:37.799Z,81.32
2018-01-19T12:17:42.085Z,83.03
2018-01-19T12:18:47.017Z,83.73
2018-01-19T12:19:51.858Z,85.21
2018-01-19T12:20:56.145Z,84.85
2018-01-19T12:22:00.488Z,85.67
2018-01-19T12:23:04.663Z,86.01
2018-01-19T12:24:08.925Z,86.50
2018-01-19T12:25:13.486Z,86.43
2018-01-19T12:26:17.757Z,85.86
2018-01-19T12:27:22.435Z,86.58
2018-01-19T12:28:29.218Z,86.61
2018-01-19T12:29:34.473Z,86.66
2018-01-19T12:31:53.245Z,86.87
2018-01-19T12:32:57.616Z,86.76
2018-01-19T12:34:01.971Z,86.65
2018-01-19T12:35:06.313Z,85.60
2018-01-19T12:36:10.666Z,85.25
2018-01-19T12:37:15.589Z,85.29
2018-01-19T12:38:20.990Z,86.10
2018-01-19T12:39:25.341Z,85.66
2018-01-19T12:40:29.623Z,86.46
2018-01-19T12:41:33.921Z,86.67
2018-01-19T12:42:38.329Z,87.10
2018-01-19T12:43:42.932Z,86.86
2018-01-19T12:44:47.233Z,86.73
2018-01-19T12:45:51.728Z,86.67
2018-01-19T12:46:56.000Z,86.59
2018-01-19T12:48:00.769Z,86.69
2018-01-19T12:49:05.688Z,86.61
2018-01-19T12:50:10.008Z,86.71
2018-01-19T12:51:14.349Z,86.86
2018-01-19T12:52:18.639Z,86.94
2018-01-19T12:53:23.029Z,87.24
2018-01-19T12:54:27.303Z,86.74
2018-01-19T12:55:31.860Z,86.88
2018-01-19T12:56:36.222Z,86.33
2018-01-19T12:57:40.424Z,85.80
2018-01-19T12:58:44.880Z,84.96
2018-01-19T12:59:49.207Z,84.84
2018-01-19T13:00:53.541Z,82.16
2018-01-19T13:01:57.876Z,81.98
2018-01-19T13:03:02.144Z,79.38
2018-01-19T13:04:06.556Z,78.60
2018-01-19T13:05:10.841Z,76.62
2018-01-19T13:06:15.095Z,78.56
2018-01-19T13:07:20.158Z,79.25
2018-01-19T13:08:25.758Z,80.25
2018-01-19T13:09:30.040Z,81.31
2018-01-19T13:10:34.226Z,81.08
2018-01-19T13:11:38.859Z,81.47
2018-01-19T13:12:43.719Z,82.14
2018-01-19T13:13:48.095Z,81.87
2018-01-19T13:14:52.352Z,81.64
2018-01-19T13:15:57.248Z,81.79
2018-01-19T13:17:01.641Z,80.09
2018-01-19T13:18:05.998Z,79.91
2018-01-19T13:19:10.769Z,81.43
2018-01-19T13:20:15.414Z,81.84
2018-01-19T13:21:19.812Z,81.55
2018-01-19T13:22:24.276Z,82.38
2018-01-19T13:23:28.602Z,82.18
2018-01-19T13:24:32.913Z,82.02
2018-01-19T13:25:37.417Z,82.30
2018-01-19T13:26:41.734Z,83.10
2018-01-19T13:27:45.920Z,83.32
2018-01-19T13:28:50.314Z,83.79
2018-01-19T13:29:54.675Z,84.02
2018-01-19T13:30:59.410Z,83.52
2018-01-19T13:32:04.755Z,83.92
2018-01-19T13:33:09.216Z,83.59
2018-01-19T13:34:13.651Z,84.11
2018-01-19T13:35:18.808Z,83.84
2018-01-19T13:36:23.157Z,84.49
2018-01-19T13:37:27.584Z,84.96
2018-01-19T13:38:32.368Z,84.84
2018-01-19T13:39:36.998Z,85.03
2018-01-19T13:40:41.180Z,85.32
2018-01-19T13:41:45.570Z,84.99
2018-01-19T13:42:50.029Z,85.15
2018-01-19T13:43:54.727Z,85.48
2018-01-19T13:45:00.275Z,85.21
2018-01-19T13:46:05.080Z,85.12
2018-01-19T13:47:11.369Z,85.59
2018-01-19T13:48:15.882Z,84.09
2018-01-19T13:49:21.411Z,84.45
2018-01-19T13:50:26.070Z,84.17
2018-01-19T13:51:30.439Z,83.96
2018-01-19T13:52:34.819Z,84.23